Terminal Aerodrome Forecast
Issued by NWS Twin Cities, MN

Home | Current Version | Previous Version | Graphics & Text | Print | Product List | Glossary On
Versions: 1 2 3 4 5 6 7 8 9 10 11 12 13 14 15 16 17 18 19 20 21 22 23 24 25 26 27 28
545
FTUS43 KMPX 232106 AAA
TAFMSP
TAF AMD
KMSP 232106Z 2321/2424 12012KT 4SM -SHRA BR VCTS SCT015CB OVC025
     FM232300 10011KT P6SM VCSH SCT010 OVC020
     FM240100 11010KT P6SM SCT006 OVC015
     FM241000 12010KT P6SM OVC007
     FM241500 12012KT P6SM SCT008 OVC015
     FM241900 12012KT P6SM BKN025=

USA.gov is the U.S. government's official web portal to all federal, state and local government web resources and services.